Airfield :
LOGIN :

Register | Disclaimer

   EN    FR    IT 

 










Legend :    VFR   Marginal VFR   IFR   Intensive IFR   Very Intensive IFR
Visi :
Ceiling :
>= 8 km
>= 3000ft
5 to 8 km
1000 to 3000 ft
1500m to 5 km
500 to 1000 ft
800 to 1500m
200 to 500 ft
< 800m
< 200 ft
Symbols :   Thunderstorms  Fog  Heavy snow  Heavy precipitations  Wind > 20 kt
SIGMETs :     Misc.  Thunderstorms  Icing  Turbulence  Mountain Waves  Volcanic Ashes






- Airport Elevation : 935 ft


EBFS - Florennes

CURRENT METAR :
  • 231006Z 25009KT 9999 FEW026 17/09 Q1016 BLU BLU

EXPIRED METARs :
  • 230925Z 25009KT 9999 FEW024 16/09 Q1016 BLU BLU TEMPO WHT
  • 230855Z 25009KT 9999 FEW020 16/11 Q1016 BLU BLU TEMPO WHT
  • 230825Z 25009KT 9999 FEW020 15/10 Q1016 BLU BLU TEMPO WHT
  • 230821Z 25008KT 9999 FEW020 15/10 Q1016 BLU BLU TEMPO WHT
  • 230755Z 22007KT 9999 FEW018 16/11 Q1015 BLU BLU
  • 230725Z 22009KT 9999 FEW012 14/10 Q1015 BLU BLU
  • 230655Z 23007KT 9999 FEW012 13/10 Q1015 BLU BLU
  • 230625Z 20006KT 9999 FEW200 12/10 Q1015 BLU BLU
  • 230555Z 21007KT 9999 FEW200 11/09 Q1015 BLU BLU
  • 230525Z 20006KT 9999 FEW200 11/09 Q1015 BLU BLU

TAF TAF EBFS
Valid from the 23 at 10:00 until the 23 at 19:00 UTC


230841Z 2310/2319 22008KT 9999 FEW020
PROB40
TEMPO 2312/2318 25010KT 5000 -SHRA SCT030TCU SCT050
PROB30
TEMPO 2312/2318 2000 SHRA -TSRA BKN012CB BKN030



MET'MAP, your aeronautical weather chart ! - Copyright ORBIFLY December 2007 - Disclaimer

ORBIFLY MET'MAP TEAM :

Programming & Development : Alexandra Zaïnal
Original concept : Baudouin d'Aumeries
Technical & hardware support : Manuel Goepfert
Assistance : Marc-Olivier Méhu




SOURCES & CREDITS :

   NOAA